createdAt,value
2022-09-12T00:01:23.124Z,64.70
2022-09-12T00:03:58.821Z,64.10
2022-09-12T00:06:28.372Z,64.12
2022-09-12T00:08:57.084Z,64.30
2022-09-12T00:11:24.051Z,64.18
2022-09-12T00:13:50.509Z,63.61
2022-09-12T00:16:20.210Z,63.76
2022-09-12T00:18:47.295Z,63.93
2022-09-12T00:21:14.369Z,64.50
2022-09-12T00:23:40.739Z,64.48
2022-09-12T00:26:07.943Z,63.71
2022-09-12T00:28:36.672Z,63.77
2022-09-12T00:31:09.246Z,64.22
2022-09-12T00:33:36.692Z,64.23
2022-09-12T00:36:08.787Z,64.46
2022-09-12T00:38:38.374Z,64.51
2022-09-12T00:41:06.315Z,65.06
2022-09-12T00:43:34.243Z,64.83
2022-09-12T00:46:26.754Z,65.54
2022-09-12T00:49:03.752Z,65.83
2022-09-12T00:51:33.896Z,64.86
2022-09-12T00:54:05.516Z,65.23
2022-09-12T00:56:32.895Z,65.08
2022-09-12T00:59:14.049Z,65.55
2022-09-12T01:01:43.639Z,65.95
2022-09-12T01:04:12.715Z,66.08
2022-09-12T01:06:41.654Z,65.64
2022-09-12T01:09:09.465Z,65.63
2022-09-12T01:11:38.782Z,65.52
2022-09-12T01:14:06.027Z,64.98
2022-09-12T01:16:36.144Z,65.24
2022-09-12T01:19:37.001Z,65.54
2022-09-12T01:22:40.666Z,65.96
2022-09-12T01:25:55.112Z,65.88
2022-09-12T01:28:58.751Z,66.19
2022-09-12T01:31:34.535Z,65.88
2022-09-12T01:34:13.115Z,65.79
2022-09-12T01:37:00.376Z,65.58
2022-09-12T01:40:01.294Z,65.87
2022-09-12T01:42:54.909Z,66.41
2022-09-12T01:45:24.040Z,66.38
2022-09-12T01:47:56.417Z,66.76
2022-09-12T01:50:27.984Z,66.12
2022-09-12T01:53:04.637Z,65.68
2022-09-12T01:55:36.938Z,65.74
2022-09-12T01:58:18.548Z,66.63
2022-09-12T02:00:59.768Z,66.56
2022-09-12T02:03:44.820Z,66.48
2022-09-12T02:06:41.823Z,66.96
2022-09-12T02:09:12.866Z,66.62
2022-09-12T02:11:43.447Z,66.63
2022-09-12T02:14:14.612Z,67.05
2022-09-12T02:17:04.735Z,67.04
2022-09-12T02:19:37.031Z,67.54
2022-09-12T02:22:05.025Z,67.01
2022-09-12T02:24:43.559Z,67.07
2022-09-12T02:27:15.195Z,66.82
2022-09-12T02:29:44.531Z,66.95
2022-09-12T02:32:32.778Z,67.31
2022-09-12T02:35:07.265Z,67.57
2022-09-12T02:37:53.045Z,67.12
2022-09-12T02:40:19.473Z,66.41
2022-09-12T02:42:46.121Z,66.51
2022-09-12T02:45:12.963Z,66.58
2022-09-12T02:47:49.096Z,66.94
2022-09-12T02:50:15.821Z,66.79
2022-09-12T02:52:42.847Z,66.81
2022-09-12T02:55:11.563Z,66.06
2022-09-12T02:57:38.329Z,66.53
2022-09-12T03:00:06.156Z,66.66
2022-09-12T03:02:49.803Z,66.56
2022-09-12T03:05:24.819Z,66.54
2022-09-12T03:08:06.558Z,66.51
2022-09-12T03:10:37.555Z,66.37
2022-09-12T03:13:32.367Z,66.46
2022-09-12T03:16:23.885Z,66.49
2022-09-12T03:19:27.751Z,66.22
2022-09-12T03:22:09.210Z,66.00
2022-09-12T03:24:41.047Z,65.76
2022-09-12T03:27:14.526Z,65.67
2022-09-12T03:29:43.517Z,66.38
2022-09-12T03:32:10.066Z,66.29
2022-09-12T03:34:36.441Z,66.67
2022-09-12T03:37:02.846Z,66.71
2022-09-12T03:39:29.365Z,67.35
2022-09-12T03:41:56.415Z,67.94
2022-09-12T03:44:23.911Z,68.11
2022-09-12T03:46:50.500Z,67.84
2022-09-12T03:49:17.639Z,68.06
2022-09-12T03:51:44.383Z,68.14
2022-09-12T03:54:11.722Z,68.36
2022-09-12T03:56:38.680Z,68.26
2022-09-12T03:59:06.627Z,68.19
2022-09-12T04:01:33.728Z,67.92
2022-09-12T04:04:00.321Z,67.94
2022-09-12T04:06:26.662Z,68.08
2022-09-12T04:08:54.700Z,67.74
2022-09-12T04:11:22.134Z,67.93
2022-09-12T04:13:48.772Z,68.07
2022-09-12T04:16:16.598Z,67.95
2022-09-12T04:18:43.271Z,67.90
2022-09-12T04:21:12.113Z,67.91
2022-09-12T04:23:39.107Z,67.88
2022-09-12T04:26:09.012Z,68.14
2022-09-12T04:28:37.074Z,67.33
2022-09-12T04:31:09.173Z,67.74
2022-09-12T04:33:36.617Z,67.40
2022-09-12T04:36:08.450Z,67.10
2022-09-12T04:38:36.185Z,67.18
2022-09-12T04:41:21.044Z,66.71
2022-09-12T04:43:51.641Z,66.90
2022-09-12T04:46:21.420Z,66.30
2022-09-12T04:48:50.526Z,66.23
2022-09-12T04:51:22.955Z,65.91
2022-09-12T04:53:51.889Z,65.83
2022-09-12T04:56:20.403Z,66.47
2022-09-12T04:58:46.851Z,66.83
2022-09-12T05:01:16.108Z,66.89
2022-09-12T05:03:44.040Z,66.34
2022-09-12T05:06:13.241Z,66.71
2022-09-12T05:08:39.859Z,67.04
2022-09-12T05:11:12.669Z,67.08
2022-09-12T05:13:40.048Z,66.77
2022-09-12T05:16:08.113Z,66.56
2022-09-12T05:18:36.197Z,67.19
2022-09-12T05:21:05.725Z,66.99
2022-09-12T05:23:32.287Z,66.98
2022-09-12T05:26:00.126Z,67.25
2022-09-12T05:28:31.244Z,66.93
2022-09-12T05:31:10.416Z,67.35
2022-09-12T05:33:38.191Z,67.09
2022-09-12T05:36:06.730Z,67.02
2022-09-12T05:38:37.304Z,67.18
2022-09-12T05:41:16.923Z,66.52
2022-09-12T05:43:46.211Z,67.26
2022-09-12T05:46:15.939Z,66.91
2022-09-12T05:48:44.130Z,67.25
2022-09-12T05:51:14.214Z,67.67
2022-09-12T05:53:41.715Z,67.99
2022-09-12T05:56:13.404Z,68.20
2022-09-12T05:58:42.870Z,67.65
2022-09-12T06:01:15.150Z,67.73
2022-09-12T06:03:44.530Z,67.22
2022-09-12T06:06:13.618Z,67.00
2022-09-12T06:08:45.525Z,67.02
2022-09-12T06:11:14.790Z,67.60
2022-09-12T06:13:42.531Z,68.66
2022-09-12T06:16:18.041Z,68.71
2022-09-12T06:18:55.815Z,68.89
2022-09-12T06:21:23.889Z,68.78
2022-09-12T06:23:50.195Z,68.31
2022-09-12T06:26:18.364Z,68.54
2022-09-12T06:28:45.734Z,69.55
2022-09-12T06:31:15.477Z,69.68
2022-09-12T06:33:44.314Z,69.95
2022-09-12T06:36:12.806Z,69.93
2022-09-12T06:38:40.352Z,70.43
2022-09-12T06:41:08.959Z,71.02
2022-09-12T06:43:35.432Z,71.06
2022-09-12T06:46:02.543Z,71.12
2022-09-12T06:48:29.391Z,71.04
2022-09-12T06:51:01.130Z,70.91
2022-09-12T06:53:29.931Z,70.45
2022-09-12T06:56:07.726Z,70.34
2022-09-12T06:58:35.823Z,70.52
2022-09-12T07:01:15.185Z,71.12
2022-09-12T07:03:42.219Z,70.75
2022-09-12T07:06:10.919Z,71.04
2022-09-12T07:08:38.657Z,71.00
2022-09-12T07:11:23.048Z,71.48
2022-09-12T07:13:51.689Z,71.23
2022-09-12T07:16:19.988Z,71.26
2022-09-12T07:18:55.121Z,70.83
2022-09-12T07:21:21.791Z,71.16
2022-09-12T07:23:48.662Z,70.59
2022-09-12T07:26:16.195Z,70.58
2022-09-12T07:28:42.902Z,71.06
2022-09-12T07:31:15.919Z,70.76
2022-09-12T07:33:43.237Z,70.95
2022-09-12T07:36:18.334Z,71.36
2022-09-12T07:38:46.435Z,70.52
2022-09-12T07:41:19.933Z,70.36
2022-09-12T07:43:46.842Z,69.75
2022-09-12T07:46:14.760Z,69.58
2022-09-12T07:48:41.097Z,69.83
2022-09-12T07:51:12.044Z,69.37
2022-09-12T07:53:40.417Z,70.08
2022-09-12T07:56:08.481Z,69.50
2022-09-12T07:58:36.431Z,69.22
2022-09-12T08:01:08.956Z,69.19
2022-09-12T08:03:36.200Z,68.64
2022-09-12T08:06:14.757Z,68.87
2022-09-12T08:08:41.954Z,69.43
2022-09-12T08:11:11.507Z,68.90
2022-09-12T08:13:39.387Z,68.59
2022-09-12T08:16:08.952Z,68.28
2022-09-12T08:18:36.452Z,67.73
2022-09-12T08:21:07.533Z,67.60
2022-09-12T08:23:34.486Z,68.82
2022-09-12T08:26:06.304Z,68.27
2022-09-12T08:28:35.396Z,68.99
2022-09-12T08:31:06.514Z,69.60
2022-09-12T08:33:33.620Z,68.62
2022-09-12T08:36:27.191Z,68.03
2022-09-12T08:39:02.215Z,67.53
2022-09-12T08:41:34.705Z,67.56
2022-09-12T08:44:26.263Z,66.34
2022-09-12T08:47:10.044Z,65.66
2022-09-12T08:49:45.343Z,65.53
2022-09-12T08:52:17.120Z,64.93
2022-09-12T08:54:45.418Z,64.57
2022-09-12T08:57:14.455Z,64.77
2022-09-12T08:59:45.795Z,64.42
2022-09-12T09:02:32.053Z,64.14
2022-09-12T09:05:24.452Z,64.15
2022-09-12T09:08:17.373Z,64.62
2022-09-12T09:11:16.802Z,64.45
2022-09-12T09:14:17.177Z,64.57
2022-09-12T09:16:46.355Z,64.35
2022-09-12T09:19:19.306Z,64.43
2022-09-12T09:22:00.706Z,63.38
2022-09-12T09:24:38.182Z,62.97
2022-09-12T09:27:36.784Z,63.55
2022-09-12T09:29:59.506Z,63.37
2022-09-12T09:32:36.717Z,62.86
2022-09-12T09:35:15.627Z,62.04
2022-09-12T09:37:54.550Z,61.77
2022-09-12T09:40:30.905Z,62.43
2022-09-12T09:43:20.178Z,62.27
2022-09-12T09:45:47.958Z,61.38
2022-09-12T09:48:22.667Z,61.43
2022-09-12T09:50:50.008Z,61.90
2022-09-12T09:53:28.285Z,61.87
2022-09-12T09:55:56.701Z,61.26
2022-09-12T09:58:29.881Z,60.12
2022-09-12T10:01:02.160Z,59.34
2022-09-12T10:03:31.907Z,59.24
2022-09-12T10:06:23.364Z,59.18
2022-09-12T10:08:50.241Z,58.65
2022-09-12T10:11:16.502Z,59.01
2022-09-12T10:13:56.858Z,58.42
2022-09-12T10:16:30.943Z,58.50
2022-09-12T10:19:00.106Z,58.94
2022-09-12T10:21:47.438Z,59.07
2022-09-12T10:24:25.174Z,58.94
2022-09-12T10:26:58.081Z,58.35
2022-09-12T10:29:29.453Z,59.40
2022-09-12T10:31:58.989Z,58.35
2022-09-12T10:34:28.047Z,58.10
2022-09-12T10:36:59.978Z,57.12
2022-09-12T10:39:26.853Z,58.50
2022-09-12T10:41:53.218Z,58.75
2022-09-12T10:44:34.510Z,58.39
2022-09-12T10:47:20.323Z,58.04
2022-09-12T10:49:46.685Z,58.73
2022-09-12T10:52:20.304Z,58.23
2022-09-12T10:54:47.183Z,57.29
2022-09-12T10:57:39.741Z,56.91
2022-09-12T11:00:16.948Z,56.83
2022-09-12T11:02:57.360Z,56.55
2022-09-12T11:06:01.521Z,56.70
2022-09-12T11:09:02.974Z,56.42
2022-09-12T11:11:59.518Z,55.46
2022-09-12T11:14:44.342Z,55.89
2022-09-12T11:17:49.188Z,55.65
2022-09-12T11:20:40.834Z,55.03
2022-09-12T11:23:44.667Z,54.83
2022-09-12T11:26:32.959Z,55.03
2022-09-12T11:28:59.220Z,54.34
2022-09-12T11:31:56.231Z,53.67
2022-09-12T11:34:40.996Z,53.39
2022-09-12T11:37:48.859Z,53.57
2022-09-12T11:40:38.813Z,53.37
2022-09-12T11:43:22.065Z,52.66
2022-09-12T11:45:49.266Z,51.16
2022-09-12T11:48:59.203Z,51.01
2022-09-12T11:51:46.457Z,50.02
2022-09-12T11:54:22.790Z,49.93
2022-09-12T11:56:55.933Z,50.67
2022-09-12T11:59:25.627Z,50.28
2022-09-12T12:01:59.118Z,50.02
2022-09-12T12:04:35.223Z,49.56
2022-09-12T12:07:10.876Z,49.20
2022-09-12T12:09:47.652Z,48.47
2022-09-12T12:12:22.307Z,48.70
2022-09-12T12:14:51.124Z,49.23
2022-09-12T12:17:19.998Z,48.56
2022-09-12T12:19:50.818Z,49.63
2022-09-12T12:22:22.261Z,49.07
2022-09-12T12:25:08.860Z,48.64
2022-09-12T12:27:44.402Z,47.92
2022-09-12T12:30:29.275Z,47.70
2022-09-12T12:33:10.858Z,46.97
2022-09-12T12:35:42.727Z,48.34
2022-09-12T12:38:31.040Z,46.74
2022-09-12T12:41:19.164Z,47.10
2022-09-12T12:43:50.707Z,46.66
2022-09-12T12:46:19.926Z,45.37
2022-09-12T12:49:04.764Z,45.19
2022-09-12T12:51:46.885Z,44.68
2022-09-12T12:54:32.303Z,44.79
2022-09-12T12:57:17.595Z,44.53
2022-09-12T12:59:56.965Z,43.37
2022-09-12T13:02:32.010Z,43.98
2022-09-12T13:05:01.253Z,43.42
2022-09-12T13:07:38.053Z,42.62
2022-09-12T13:10:07.169Z,42.20
2022-09-12T13:12:45.911Z,41.90
2022-09-12T13:15:36.864Z,41.27
2022-09-12T13:18:06.782Z,40.72
2022-09-12T13:20:44.890Z,40.56
2022-09-12T13:23:25.956Z,40.75
2022-09-12T13:25:54.951Z,40.28
2022-09-12T13:28:21.600Z,41.13
2022-09-12T13:31:02.059Z,41.07
2022-09-12T13:33:43.092Z,41.54
2022-09-12T13:36:53.325Z,41.42
2022-09-12T13:39:29.765Z,41.98
2022-09-12T13:42:38.148Z,43.09
2022-09-12T13:45:07.671Z,42.06
2022-09-12T13:47:41.497Z,41.09
2022-09-12T13:50:14.241Z,41.16
2022-09-12T13:52:40.645Z,39.90
2022-09-12T13:55:20.658Z,39.75
2022-09-12T13:57:57.991Z,38.20
2022-09-12T14:00:24.280Z,37.54
2022-09-12T14:03:10.947Z,37.37
2022-09-12T14:05:39.759Z,36.30
2022-09-12T14:08:08.893Z,36.67
2022-09-12T14:10:39.270Z,36.51
2022-09-12T14:13:17.768Z,37.08
2022-09-12T14:15:46.979Z,37.42
2022-09-12T14:18:24.088Z,37.00
2022-09-12T14:20:54.911Z,37.40
2022-09-12T14:23:28.460Z,36.13
2022-09-12T14:25:56.227Z,36.43
2022-09-12T14:28:23.910Z,35.65
2022-09-12T14:31:02.755Z,35.87
2022-09-12T14:33:33.051Z,36.33
2022-09-12T14:36:12.081Z,35.73
2022-09-12T14:38:44.013Z,35.64
2022-09-12T14:41:13.371Z,35.27
2022-09-12T14:43:45.581Z,35.72
2022-09-12T14:46:17.445Z,35.21
2022-09-12T14:48:48.801Z,35.06
2022-09-12T14:51:51.456Z,34.39
2022-09-12T14:54:30.193Z,32.94
2022-09-12T14:57:03.260Z,32.86
2022-09-12T14:59:35.826Z,32.81
2022-09-12T15:02:20.428Z,33.19
2022-09-12T15:04:49.471Z,33.71
2022-09-12T15:07:41.224Z,34.30
2022-09-12T15:10:21.983Z,33.65
2022-09-12T15:12:49.131Z,33.23
2022-09-12T15:15:18.547Z,33.83
2022-09-12T15:17:45.104Z,33.43
2022-09-12T15:20:13.336Z,33.64
2022-09-12T15:22:42.151Z,32.63
2022-09-12T15:25:12.215Z,32.66
2022-09-12T15:27:40.834Z,32.14
2022-09-12T15:30:09.717Z,32.16
2022-09-12T15:32:37.067Z,31.25
2022-09-12T15:35:03.836Z,32.10
2022-09-12T15:37:30.944Z,31.26
2022-09-12T15:39:57.304Z,31.53
2022-09-12T15:42:29.248Z,31.48
2022-09-12T15:44:59.430Z,30.45
2022-09-12T15:47:28.201Z,30.43
2022-09-12T15:49:54.506Z,30.16
2022-09-12T15:52:20.819Z,31.48
2022-09-12T15:54:47.167Z,30.70
2022-09-12T15:57:13.463Z,30.96
2022-09-12T15:59:39.768Z,30.66
2022-09-12T16:02:06.801Z,29.65
2022-09-12T16:04:33.166Z,29.24
2022-09-12T16:06:59.549Z,29.38
2022-09-12T16:09:25.831Z,30.26
2022-09-12T16:11:52.273Z,30.20
2022-09-12T16:14:19.284Z,29.50
2022-09-12T16:16:53.355Z,29.43
2022-09-12T16:19:20.167Z,29.76
2022-09-12T16:21:46.804Z,29.81
2022-09-12T16:24:13.112Z,29.86
2022-09-12T16:26:39.503Z,29.81
2022-09-12T16:29:05.894Z,29.88
2022-09-12T16:31:32.253Z,30.39
2022-09-12T16:33:58.605Z,30.68
2022-09-12T16:36:24.884Z,30.67
2022-09-12T16:38:53.342Z,30.36
2022-09-12T16:41:21.752Z,29.79
2022-09-12T16:43:48.497Z,29.62
2022-09-12T16:46:23.065Z,30.99
2022-09-12T16:48:53.164Z,31.25
2022-09-12T16:51:22.250Z,31.97
2022-09-12T16:53:49.405Z,32.31
2022-09-12T16:56:15.777Z,32.21
2022-09-12T16:58:43.067Z,32.28
2022-09-12T17:01:12.126Z,32.93
2022-09-12T17:03:39.003Z,33.49
2022-09-12T17:06:12.920Z,33.87
2022-09-12T17:08:42.959Z,34.55
2022-09-12T17:11:15.689Z,35.05
2022-09-12T17:14:04.022Z,35.08
2022-09-12T17:16:33.929Z,36.60
2022-09-12T17:19:03.148Z,36.98
2022-09-12T17:21:29.614Z,37.74
2022-09-12T17:23:55.983Z,37.77
2022-09-12T17:26:22.525Z,37.64
2022-09-12T17:28:48.934Z,38.12
2022-09-12T17:31:15.724Z,38.32
2022-09-12T17:33:42.171Z,38.70
2022-09-12T17:36:11.511Z,38.59
2022-09-12T17:38:39.624Z,38.93
2022-09-12T17:41:08.334Z,38.70
2022-09-12T17:43:37.989Z,39.20
2022-09-12T17:46:04.967Z,39.58
2022-09-12T17:48:31.335Z,40.46
2022-09-12T17:50:58.977Z,40.83
2022-09-12T17:53:25.374Z,41.07
2022-09-12T17:55:54.338Z,41.61
2022-09-12T17:58:20.867Z,41.87
2022-09-12T18:01:05.739Z,42.79
2022-09-12T18:03:32.035Z,43.30
2022-09-12T18:05:58.331Z,43.85
2022-09-12T18:08:24.681Z,43.37
2022-09-12T18:10:52.320Z,43.95
2022-09-12T18:13:18.607Z,44.26
2022-09-12T18:15:44.963Z,44.47
2022-09-12T18:18:11.335Z,44.43
2022-09-12T18:20:37.657Z,44.59
2022-09-12T18:23:04.641Z,44.74
2022-09-12T18:25:30.948Z,44.92
2022-09-12T18:27:57.424Z,45.40
2022-09-12T18:30:23.897Z,46.23
2022-09-12T18:32:50.572Z,45.69
2022-09-12T18:35:17.131Z,46.15
2022-09-12T18:37:43.915Z,46.38
2022-09-12T18:40:10.801Z,47.20
2022-09-12T18:42:37.112Z,46.35
2022-09-12T18:45:03.638Z,46.91
2022-09-12T18:47:30.062Z,47.34
2022-09-12T18:49:56.397Z,47.50
2022-09-12T18:52:22.806Z,48.04
2022-09-12T18:54:49.449Z,48.68
2022-09-12T18:57:15.782Z,49.07
2022-09-12T18:59:42.168Z,49.21
2022-09-12T19:02:15.757Z,49.89
2022-09-12T19:04:42.183Z,49.90
2022-09-12T19:07:08.576Z,50.27
2022-09-12T19:09:34.943Z,50.71
2022-09-12T19:12:01.485Z,50.65
2022-09-12T19:14:27.898Z,50.85
2022-09-12T19:16:54.280Z,51.06
2022-09-12T19:19:21.483Z,51.31
2022-09-12T19:21:47.892Z,51.27
2022-09-12T19:24:14.702Z,51.22
2022-09-12T19:26:41.519Z,51.67
2022-09-12T19:29:08.307Z,51.12
2022-09-12T19:31:34.962Z,52.08
2022-09-12T19:34:03.000Z,52.45
2022-09-12T19:36:46.735Z,53.59
2022-09-12T19:39:14.727Z,54.46
2022-09-12T19:41:41.205Z,54.12
2022-09-12T19:44:07.671Z,54.11
2022-09-12T19:46:34.126Z,53.80
2022-09-12T19:49:00.455Z,54.06
2022-09-12T19:51:26.787Z,53.55
2022-09-12T19:53:53.553Z,53.73
2022-09-12T19:56:20.662Z,53.80
2022-09-12T19:58:52.272Z,54.24
2022-09-12T20:01:25.014Z,54.98
2022-09-12T20:03:54.999Z,55.30
2022-09-12T20:06:21.430Z,55.29
2022-09-12T20:08:48.090Z,55.22
2022-09-12T20:11:17.553Z,55.26
2022-09-12T20:13:44.966Z,55.70
2022-09-12T20:16:21.272Z,55.73
2022-09-12T20:18:52.937Z,55.90
2022-09-12T20:21:24.940Z,56.30
2022-09-12T20:23:51.297Z,55.84
2022-09-12T20:26:17.757Z,56.36
2022-09-12T20:28:44.050Z,56.43
2022-09-12T20:31:13.958Z,57.25
2022-09-12T20:33:40.489Z,56.61
2022-09-12T20:36:09.907Z,57.17
2022-09-12T20:38:36.923Z,57.39
2022-09-12T20:41:05.297Z,57.15
2022-09-12T20:43:31.870Z,58.09
2022-09-12T20:45:58.274Z,58.90
2022-09-12T20:48:25.212Z,59.07
2022-09-12T20:50:51.499Z,59.01
2022-09-12T20:53:17.903Z,59.05
2022-09-12T20:55:51.408Z,59.36
2022-09-12T20:58:18.272Z,58.94
2022-09-12T21:00:45.180Z,59.63
2022-09-12T21:03:12.268Z,59.55
2022-09-12T21:05:38.647Z,59.46
2022-09-12T21:08:05.983Z,59.79
2022-09-12T21:10:32.471Z,59.70
2022-09-12T21:12:58.817Z,60.06
2022-09-12T21:15:25.249Z,59.47
2022-09-12T21:17:52.452Z,59.50
2022-09-12T21:20:19.163Z,59.98
2022-09-12T21:22:45.518Z,60.13
2022-09-12T21:25:11.885Z,60.12
2022-09-12T21:27:38.193Z,59.90
2022-09-12T21:30:05.443Z,60.05
2022-09-12T21:32:37.033Z,60.44
2022-09-12T21:35:05.113Z,60.30
2022-09-12T21:37:32.080Z,60.50
2022-09-12T21:39:59.222Z,60.39
2022-09-12T21:42:25.670Z,60.78
2022-09-12T21:44:52.169Z,61.03
2022-09-12T21:47:18.800Z,60.67
2022-09-12T21:49:45.115Z,61.04
2022-09-12T21:52:12.845Z,61.68
2022-09-12T21:54:39.398Z,61.62
2022-09-12T21:57:06.084Z,61.36
2022-09-12T21:59:32.513Z,61.05
2022-09-12T22:01:58.841Z,61.68
2022-09-12T22:04:26.225Z,62.23
2022-09-12T22:06:52.788Z,62.75
2022-09-12T22:09:19.119Z,62.23
2022-09-12T22:11:45.421Z,62.07
2022-09-12T22:14:11.730Z,61.21
2022-09-12T22:16:38.019Z,62.18
2022-09-12T22:19:04.310Z,62.00
2022-09-12T22:21:30.612Z,62.41
2022-09-12T22:24:15.531Z,62.79
2022-09-12T22:26:46.183Z,62.27
2022-09-12T22:29:13.305Z,62.83
2022-09-12T22:31:42.843Z,63.07
2022-09-12T22:34:11.409Z,63.46
2022-09-12T22:36:39.188Z,63.15
2022-09-12T22:39:08.649Z,62.71
2022-09-12T22:41:35.064Z,62.56
2022-09-12T22:44:05.310Z,62.59
2022-09-12T22:46:32.545Z,62.90
2022-09-12T22:49:06.777Z,63.30
2022-09-12T22:51:33.832Z,64.18
2022-09-12T22:54:03.281Z,63.98
2022-09-12T22:56:29.581Z,64.46
2022-09-12T22:58:55.956Z,64.49
2022-09-12T23:01:22.796Z,64.45
2022-09-12T23:03:49.299Z,64.51
2022-09-12T23:06:16.562Z,65.09
2022-09-12T23:08:43.279Z,64.69
2022-09-12T23:11:13.081Z,65.55
2022-09-12T23:13:42.386Z,65.98
2022-09-12T23:16:15.619Z,65.42
2022-09-12T23:18:41.999Z,65.14
2022-09-12T23:21:10.331Z,64.88
2022-09-12T23:23:37.557Z,64.46
2022-09-12T23:26:13.146Z,64.44
2022-09-12T23:28:40.849Z,64.17
2022-09-12T23:31:09.614Z,64.29
2022-09-12T23:33:36.308Z,64.74
2022-09-12T23:36:06.113Z,65.21
2022-09-12T23:38:33.837Z,65.55
2022-09-12T23:41:01.417Z,65.47
2022-09-12T23:43:27.981Z,65.08
2022-09-12T23:45:54.333Z,65.16
2022-09-12T23:48:20.816Z,65.59
2022-09-12T23:50:48.671Z,65.40
2022-09-12T23:53:16.990Z,65.34
2022-09-12T23:55:44.737Z,65.50
2022-09-12T23:58:11.539Z,65.84
